Time;durP1;ratioP1;P1;durP2;ratioP2;P2;SDS_P1;SDS_P2;PMS_P1;PMS_P2;Temp;Humidity;BMP_temperature;BMP_pressure;BME280_temperature;BME280_humidity;BME280_pressure;Samples;Min_cycle;Max_cycle;Signal;HPM_P1;HPM_P2
2024/04/21 00:02:39;;;;;;;2.67;1.90;;;;;;;;;;5450644;26;20066;-80
2024/04/21 00:05:25;;;;;;;2.50;1.63;;;;;;;;;;5452343;26;19997;-80
2024/04/21 00:08:11;;;;;;;3.20;1.80;;;;;;;;;;5484094;26;20047;-80
2024/04/21 00:10:56;;;;;;;2.47;1.63;;;;;;;;;;5512555;26;20373;-80
2024/04/21 00:13:41;;;;;;;1.48;1.25;;;;;;;;;;5489353;26;20025;-80
2024/04/21 00:16:27;;;;;;;2.35;1.60;;;;;;;;;;5488670;26;19993;-80
2024/04/21 00:19:12;;;;;;;2.75;2.20;;;;;;;;;;5514342;26;20042;-79
2024/04/21 00:21:57;;;;;;;2.35;1.67;;;;;;;;;;5496803;26;19993;-80
2024/04/21 00:24:42;;;;;;;4.57;1.85;;;;;;;;;;5492866;26;19993;-81
2024/04/21 00:27:28;;;;;;;3.60;1.77;;;;;;;;;;5515100;26;19993;-81
2024/04/21 00:30:13;;;;;;;2.05;1.40;;;;;;;;;;5500529;26;20032;-82
2024/04/21 00:32:58;;;;;;;1.73;1.60;;;;;;;;;;5452914;26;20005;-82
2024/04/21 00:35:44;;;;;;;2.13;1.40;;;;;;;;;;5452795;26;20283;-83
2024/04/21 00:38:29;;;;;;;1.95;1.38;;;;;;;;;;5452826;26;19994;-80
2024/04/21 00:41:14;;;;;;;1.92;1.40;;;;;;;;;;5537284;25;19993;-80
2024/04/21 00:43:59;;;;;;;3.05;1.40;;;;;;;;;;5462291;26;20013;-81
2024/04/21 00:46:45;;;;;;;3.95;1.50;;;;;;;;;;5452778;26;20000;-81
2024/04/21 00:49:30;;;;;;;3.58;1.70;;;;;;;;;;5503978;26;19994;-81
2024/04/21 00:52:16;;;;;;;1.08;0.90;;;;;;;;;;5514657;26;20020;-80
2024/04/21 00:55:01;;;;;;;4.32;1.55;;;;;;;;;;5512357;26;20025;-81
2024/04/21 00:57:47;;;;;;;2.47;1.30;;;;;;;;;;5488790;26;20031;-80
2024/04/21 01:00:32;;;;;;;2.28;1.27;;;;;;;;;;5490223;26;20347;-81
2024/04/21 01:03:18;;;;;;;4.32;1.52;;;;;;;;;;5489046;26;20073;-81
2024/04/21 01:06:03;;;;;;;3.08;1.40;;;;;;;;;;5488135;26;20417;-81
2024/04/21 01:08:48;;;;;;;2.03;1.15;;;;;;;;;;5488971;26;19997;-81
2024/04/21 01:11:33;;;;;;;2.70;1.20;;;;;;;;;;5508784;26;20476;-80
2024/04/21 01:14:19;;;;;;;1.23;1.05;;;;;;;;;;5488075;26;19998;-80
2024/04/21 01:17:04;;;;;;;1.73;1.25;;;;;;;;;;5488778;26;20097;-80
2024/04/21 01:19:49;;;;;;;1.50;1.00;;;;;;;;;;5488158;26;20329;-80
2024/04/21 01:22:37;;;;;;;1.85;0.82;;;;;;;;;;5459861;26;19997;-80
2024/04/21 01:25:24;;;;;;;2.28;1.00;;;;;;;;;;5487610;26;20021;-80
2024/04/21 01:28:10;;;;;;;1.38;0.93;;;;;;;;;;5487963;26;20005;-80
2024/04/21 01:30:55;;;;;;;2.17;0.98;;;;;;;;;;5514149;26;19994;-80
2024/04/21 01:33:40;;;;;;;1.33;0.90;;;;;;;;;;5517795;26;20067;-80
2024/04/21 01:36:25;;;;;;;1.60;1.00;;;;;;;;;;5517227;26;19989;-81
2024/04/21 01:39:11;;;;;;;0.90;0.80;;;;;;;;;;5517683;26;20005;-80
2024/04/21 01:41:56;;;;;;;1.30;0.85;;;;;;;;;;5498057;26;20041;-80
2024/04/21 01:44:43;;;;;;;2.10;1.33;;;;;;;;;;5491772;26;20009;-80
2024/04/21 01:47:28;;;;;;;0.90;0.88;;;;;;;;;;5464547;26;20012;-81
2024/04/21 01:50:14;;;;;;;2.90;0.80;;;;;;;;;;5490729;26;20341;-80
2024/04/21 01:52:59;;;;;;;1.27;0.80;;;;;;;;;;5517288;26;20470;-80
2024/04/21 01:55:44;;;;;;;2.25;0.70;;;;;;;;;;5517058;26;20001;-81
2024/04/21 01:58:29;;;;;;;1.85;0.77;;;;;;;;;;5492719;26;20009;-80
2024/04/21 02:01:13;;;;;;;1.15;0.80;;;;;;;;;;5516811;26;20073;-81
2024/04/21 02:03:59;;;;;;;2.53;0.80;;;;;;;;;;5496548;26;20005;-81
2024/04/21 02:06:45;;;;;;;2.33;0.90;;;;;;;;;;5521141;26;20336;-81
2024/04/21 02:09:30;;;;;;;3.50;0.90;;;;;;;;;;5503828;26;20133;-81
2024/04/21 02:12:15;;;;;;;0.70;0.70;;;;;;;;;;5501094;26;20013;-79
2024/04/21 02:15:09;;;;;;;1.90;0.93;;;;;;;;;;5495455;26;19997;-81
2024/04/21 02:17:55;;;;;;;2.45;0.90;;;;;;;;;;5496388;26;19994;-82
2024/04/21 02:20:41;;;;;;;2.67;1.02;;;;;;;;;;5495862;26;20388;-81
2024/04/21 02:23:27;;;;;;;2.95;1.00;;;;;;;;;;5459304;26;20070;-81
2024/04/21 02:26:12;;;;;;;3.17;0.88;;;;;;;;;;5466936;26;20094;-81
2024/04/21 02:28:57;;;;;;;2.13;1.00;;;;;;;;;;5521480;26;19993;-82
2024/04/21 02:31:42;;;;;;;1.50;0.80;;;;;;;;;;5507844;26;20004;-81
2024/04/21 02:34:28;;;;;;;1.40;1.25;;;;;;;;;;5495759;26;20068;-81
2024/04/21 02:37:31;;;;;;;2.03;1.50;;;;;;;;;;5496126;26;19993;-81
2024/04/21 02:40:17;;;;;;;2.70;0.98;;;;;;;;;;5496002;26;20011;-81
2024/04/21 02:43:02;;;;;;;3.17;1.13;;;;;;;;;;5491376;26;20013;-81
2024/04/21 02:45:48;;;;;;;3.63;1.00;;;;;;;;;;5459255;26;20009;-80
2024/04/21 02:48:34;;;;;;;2.35;1.33;;;;;;;;;;5464813;26;20013;-81
2024/04/21 02:54:59;;;;;;;3.50;1.42;;;;;;;;;;5385020;26;20000;-80
2024/04/21 02:57:44;;;;;;;1.15;1.05;;;;;;;;;;5471519;26;20406;-81
2024/04/21 03:00:29;;;;;;;1.25;0.85;;;;;;;;;;5458964;26;20017;-80
2024/04/21 03:03:15;;;;;;;3.20;1.45;;;;;;;;;;5488059;26;20005;-80
2024/04/21 03:06:00;;;;;;;4.65;1.23;;;;;;;;;;5517615;26;19993;-81
2024/04/21 03:08:45;;;;;;;1.90;1.02;;;;;;;;;;5491607;26;20006;-79
2024/04/21 03:11:31;;;;;;;2.08;1.17;;;;;;;;;;5448677;26;19998;-81
2024/04/21 03:14:18;;;;;;;2.70;1.30;;;;;;;;;;5456132;26;20010;-81
2024/04/21 03:17:03;;;;;;;2.38;1.20;;;;;;;;;;5454231;26;20002;-81
2024/04/21 03:19:49;;;;;;;5.78;1.65;;;;;;;;;;5455971;26;20030;-79
2024/04/21 03:22:34;;;;;;;5.47;1.77;;;;;;;;;;5515288;26;20083;-81
2024/04/21 03:25:19;;;;;;;2.92;1.50;;;;;;;;;;5486061;25;969706;-80
2024/04/21 03:28:05;;;;;;;5.10;1.65;;;;;;;;;;5506004;26;19997;-79
2024/04/21 03:30:57;;;;;;;6.03;2.10;;;;;;;;;;5490470;26;20001;-80
2024/04/21 03:33:42;;;;;;;2.65;1.65;;;;;;;;;;5492773;26;20086;-80
2024/04/21 03:36:27;;;;;;;5.70;1.95;;;;;;;;;;5490560;26;20547;-80
2024/04/21 03:39:12;;;;;;;5.85;1.98;;;;;;;;;;5490418;26;20008;-80
2024/04/21 03:41:58;;;;;;;3.17;1.67;;;;;;;;;;5497788;25;20004;-79
2024/04/21 03:44:43;;;;;;;4.97;1.60;;;;;;;;;;5477325;26;19998;-79
2024/04/21 03:47:28;;;;;;;2.53;1.50;;;;;;;;;;5453987;26;19998;-79
2024/04/21 03:50:13;;;;;;;3.42;2.13;;;;;;;;;;5453617;26;20009;-79
2024/04/21 03:52:59;;;;;;;3.03;1.60;;;;;;;;;;5482789;26;20089;-79
2024/04/21 03:55:44;;;;;;;4.07;1.92;;;;;;;;;;5488843;26;20044;-79
2024/04/21 03:58:29;;;;;;;5.15;1.80;;;;;;;;;;5518885;25;19993;-80
2024/04/21 04:01:15;;;;;;;3.42;1.77;;;;;;;;;;5487737;26;19994;-80
2024/04/21 04:04:00;;;;;;;5.40;2.08;;;;;;;;;;5467853;26;20046;-80
2024/04/21 04:06:45;;;;;;;5.03;2.10;;;;;;;;;;5464670;25;20073;-80
2024/04/21 04:09:30;;;;;;;4.18;2.22;;;;;;;;;;5527135;25;19997;-80
2024/04/21 04:12:16;;;;;;;2.47;1.88;;;;;;;;;;5519851;25;19993;-80
2024/04/21 04:15:01;;;;;;;2.53;2.05;;;;;;;;;;5488090;26;19998;-80
2024/04/21 04:17:46;;;;;;;3.25;1.80;;;;;;;;;;5454129;26;20071;-80
2024/04/21 04:20:32;;;;;;;3.67;2.10;;;;;;;;;;5453629;26;19998;-80
2024/04/21 04:23:17;;;;;;;3.33;2.00;;;;;;;;;;5458452;26;20016;-81
2024/04/21 04:26:02;;;;;;;4.68;2.17;;;;;;;;;;5491505;26;20001;-80
2024/04/21 04:28:48;;;;;;;3.70;2.08;;;;;;;;;;5515445;25;20439;-81
2024/04/21 04:31:33;;;;;;;5.38;2.00;;;;;;;;;;5522056;25;20008;-81
2024/04/21 04:34:18;;;;;;;2.50;2.28;;;;;;;;;;5491625;25;20016;-81
2024/04/21 04:37:04;;;;;;;7.97;2.47;;;;;;;;;;5490456;26;20001;-80
2024/04/21 04:39:49;;;;;;;4.00;2.03;;;;;;;;;;5507616;25;20482;-80
2024/04/21 04:42:34;;;;;;;2.65;1.77;;;;;;;;;;5512372;25;20061;-80
2024/04/21 04:45:20;;;;;;;3.67;1.40;;;;;;;;;;5492020;25;20001;-80
2024/04/21 04:48:05;;;;;;;2.35;1.65;;;;;;;;;;5489540;26;20008;-80
2024/04/21 04:50:51;;;;;;;4.50;2.00;;;;;;;;;;5490898;25;20001;-80
2024/04/21 04:53:36;;;;;;;3.50;1.60;;;;;;;;;;5489084;26;20009;-80
2024/04/21 04:56:21;;;;;;;2.17;1.48;;;;;;;;;;5491611;26;20052;-79
2024/04/21 04:59:06;;;;;;;4.97;2.15;;;;;;;;;;5491521;26;20016;-79
2024/04/21 05:01:51;;;;;;;5.47;2.45;;;;;;;;;;5518160;25;20072;-79
2024/04/21 05:04:37;;;;;;;4.85;1.67;;;;;;;;;;5526717;25;20461;-79
2024/04/21 05:07:22;;;;;;;3.90;1.20;;;;;;;;;;5523056;25;20000;-79
2024/04/21 05:10:07;;;;;;;3.85;1.52;;;;;;;;;;5525422;25;20094;-80
2024/04/21 05:12:52;;;;;;;7.45;1.50;;;;;;;;;;5478692;25;20073;-79
2024/04/21 05:15:37;;;;;;;5.93;1.60;;;;;;;;;;5459622;25;20013;-80
2024/04/21 05:18:23;;;;;;;2.33;1.52;;;;;;;;;;5509865;26;20009;-80
2024/04/21 05:21:08;;;;;;;5.30;1.40;;;;;;;;;;5488931;26;19994;-80
2024/04/21 05:23:53;;;;;;;4.45;1.55;;;;;;;;;;5497111;25;20008;-81
2024/04/21 05:26:38;;;;;;;4.53;1.52;;;;;;;;;;5526005;25;19997;-82
2024/04/21 05:29:24;;;;;;;4.28;1.52;;;;;;;;;;5525753;25;20009;-79
2024/04/21 05:32:09;;;;;;;7.65;1.83;;;;;;;;;;5526066;25;20534;-78
2024/04/21 05:34:54;;;;;;;7.53;1.92;;;;;;;;;;5509958;25;20009;-82
2024/04/21 05:37:41;;;;;;;5.82;2.30;;;;;;;;;;5477623;26;20009;-82
2024/04/21 05:40:27;;;;;;;3.70;1.90;;;;;;;;;;5514837;25;20142;-82
2024/04/21 05:43:13;;;;;;;5.13;1.90;;;;;;;;;;5504246;25;19997;-81
2024/04/21 05:45:59;;;;;;;6.20;1.80;;;;;;;;;;5492162;25;20012;-82
2024/04/21 05:48:44;;;;;;;4.45;2.08;;;;;;;;;;5497487;25;20001;-82
2024/04/21 05:51:29;;;;;;;4.45;1.80;;;;;;;;;;5498792;25;20002;-83
2024/04/21 05:54:14;;;;;;;5.40;1.90;;;;;;;;;;5489364;25;20017;-84
2024/04/21 05:56:59;;;;;;;3.33;1.42;;;;;;;;;;5513663;25;19996;-83
2024/04/21 05:59:45;;;;;;;4.72;1.55;;;;;;;;;;5504285;25;20016;-83
2024/04/21 06:02:30;;;;;;;7.20;1.80;;;;;;;;;;5499932;25;20007;-82
2024/04/21 06:05:15;;;;;;;8.00;2.15;;;;;;;;;;5490677;25;19998;-83
2024/04/21 06:08:00;;;;;;;6.13;1.92;;;;;;;;;;5487960;26;19998;-82
2024/04/21 06:10:46;;;;;;;6.55;1.85;;;;;;;;;;5513699;25;19996;-81
2024/04/21 06:13:31;;;;;;;3.03;1.55;;;;;;;;;;5483586;25;20284;-82
2024/04/21 06:16:16;;;;;;;7.47;1.95;;;;;;;;;;5506748;26;20012;-82
2024/04/21 06:19:01;;;;;;;10.50;4.63;;;;;;;;;;5505971;25;19994;-82
2024/04/21 06:21:47;;;;;;;2.92;1.40;;;;;;;;;;5512999;25;20069;-83
2024/04/21 06:24:32;;;;;;;12.90;2.20;;;;;;;;;;5504805;25;20024;-82
2024/04/21 06:27:17;;;;;;;11.40;2.55;;;;;;;;;;5518488;25;20012;-82
2024/04/21 06:30:03;;;;;;;13.80;2.22;;;;;;;;;;5491600;25;20485;-81
2024/04/21 06:32:48;;;;;;;6.57;1.58;;;;;;;;;;5520405;25;20016;-83
2024/04/21 06:35:33;;;;;;;8.23;2.72;;;;;;;;;;5506189;26;20001;-82
2024/04/21 06:38:19;;;;;;;8.45;2.10;;;;;;;;;;5523434;25;20013;-83
2024/04/21 06:41:04;;;;;;;5.82;2.28;;;;;;;;;;5504398;25;20101;-84
2024/04/21 06:43:49;;;;;;;10.77;2.60;;;;;;;;;;5517116;25;19997;-83
2024/04/21 06:46:35;;;;;;;9.80;2.95;;;;;;;;;;5499249;25;20012;-83
2024/04/21 06:49:20;;;;;;;5.60;2.17;;;;;;;;;;5520872;25;20068;-82
2024/04/21 06:52:05;;;;;;;5.15;2.25;;;;;;;;;;5503293;25;19998;-82
2024/04/21 06:54:50;;;;;;;12.13;3.25;;;;;;;;;;5528941;25;20004;-82
2024/04/21 06:57:36;;;;;;;8.55;2.58;;;;;;;;;;5502826;26;20001;-82
2024/04/21 07:00:21;;;;;;;14.13;3.25;;;;;;;;;;5490734;26;20005;-82
2024/04/21 07:03:06;;;;;;;9.02;2.50;;;;;;;;;;5491088;26;20009;-81
2024/04/21 07:05:51;;;;;;;5.78;2.63;;;;;;;;;;5491476;26;20002;-82
2024/04/21 07:08:36;;;;;;;11.57;3.20;;;;;;;;;;5499541;25;20000;-82
2024/04/21 07:11:22;;;;;;;8.18;2.15;;;;;;;;;;5528052;25;20008;-82
2024/04/21 07:14:07;;;;;;;9.65;2.55;;;;;;;;;;5490835;26;19993;-81
2024/04/21 07:16:52;;;;;;;10.77;3.25;;;;;;;;;;5480119;26;20070;-82
2024/04/21 07:19:38;;;;;;;2.67;1.70;;;;;;;;;;5494789;26;20468;-80
2024/04/21 07:22:23;;;;;;;9.05;2.88;;;;;;;;;;5489475;26;20005;-81
2024/04/21 07:25:09;;;;;;;6.53;2.10;;;;;;;;;;5494619;25;20012;-81
2024/04/21 07:27:55;;;;;;;8.30;2.08;;;;;;;;;;5504068;25;20000;-81
2024/04/21 07:30:40;;;;;;;7.53;2.28;;;;;;;;;;5506972;26;20011;-79
2024/04/21 07:33:25;;;;;;;12.98;3.17;;;;;;;;;;5490524;26;20454;-81
2024/04/21 07:36:10;;;;;;;11.40;2.75;;;;;;;;;;5490884;26;20048;-81
2024/04/21 07:38:56;;;;;;;8.95;3.30;;;;;;;;;;5493533;26;20426;-81
2024/04/21 07:41:41;;;;;;;8.70;3.35;;;;;;;;;;5489972;26;19994;-82
2024/04/21 07:44:26;;;;;;;8.27;2.72;;;;;;;;;;5502549;25;19996;-81
2024/04/21 07:47:12;;;;;;;9.52;2.85;;;;;;;;;;5496976;25;20092;-83
2024/04/21 07:49:57;;;;;;;6.32;2.70;;;;;;;;;;5508605;26;20001;-80
2024/04/21 07:52:42;;;;;;;6.32;2.58;;;;;;;;;;5491996;25;20641;-80
2024/04/21 07:55:27;;;;;;;4.53;2.63;;;;;;;;;;5497220;25;19998;-82
2024/04/21 07:58:13;;;;;;;5.13;2.30;;;;;;;;;;5486464;26;20136;-81
2024/04/21 08:01:03;;;;;;;9.70;2.40;;;;;;;;;;5515424;25;20000;-81
2024/04/21 08:03:49;;;;;;;9.10;2.97;;;;;;;;;;5503190;25;20038;-77
2024/04/21 08:06:34;;;;;;;12.57;3.22;;;;;;;;;;5489043;25;20011;-82
2024/04/21 08:09:19;;;;;;;9.23;2.58;;;;;;;;;;5497213;25;20005;-81
2024/04/21 08:12:05;;;;;;;6.10;1.88;;;;;;;;;;5494296;25;19994;-82
2024/04/21 08:14:52;;;;;;;6.90;1.48;;;;;;;;;;5498455;25;20278;-83
2024/04/21 08:17:38;;;;;;;5.65;2.00;;;;;;;;;;5505493;26;20470;-85
2024/04/21 08:20:23;;;;;;;13.95;3.03;;;;;;;;;;5520869;25;20343;-86
2024/04/21 08:23:08;;;;;;;9.15;1.92;;;;;;;;;;5483485;25;20004;-80
2024/04/21 08:25:57;;;;;;;9.77;2.35;;;;;;;;;;5522740;25;20008;-81
2024/04/21 08:28:42;;;;;;;13.70;2.95;;;;;;;;;;5522877;25;20001;-81
2024/04/21 08:31:28;;;;;;;4.10;1.45;;;;;;;;;;5527489;25;20037;-81
2024/04/21 08:34:13;;;;;;;6.43;2.63;;;;;;;;;;5475852;26;20026;-81
2024/04/21 08:37:00;;;;;;;13.05;2.17;;;;;;;;;;5453340;26;20014;-82
2024/04/21 08:39:46;;;;;;;10.18;2.30;;;;;;;;;;5453261;26;20348;-81
2024/04/21 08:42:35;;;;;;;7.00;2.35;;;;;;;;;;5452591;26;20055;-82
2024/04/21 08:45:21;;;;;;;8.43;2.03;;;;;;;;;;5453290;26;20423;-82
2024/04/21 08:48:09;;;;;;;7.47;1.52;;;;;;;;;;5453538;26;20002;-83
2024/04/21 08:50:54;;;;;;;6.97;1.75;;;;;;;;;;5453093;26;20017;-83
2024/04/21 08:53:40;;;;;;;7.97;1.50;;;;;;;;;;5452841;26;20002;-83
2024/04/21 08:56:26;;;;;;;7.30;2.20;;;;;;;;;;5453032;26;20337;-81
2024/04/21 08:59:11;;;;;;;7.93;1.98;;;;;;;;;;5453284;26;20010;-80
2024/04/21 09:01:56;;;;;;;6.35;1.90;;;;;;;;;;5452204;26;20038;-80
2024/04/21 09:04:42;;;;;;;8.50;1.65;;;;;;;;;;5452516;26;19998;-81
2024/04/21 09:07:30;;;;;;;9.38;2.13;;;;;;;;;;5452859;26;19998;-82
2024/04/21 09:10:16;;;;;;;5.32;1.80;;;;;;;;;;5453508;26;19998;-82
2024/04/21 09:13:01;;;;;;;5.00;1.90;;;;;;;;;;5452890;26;20017;-82
2024/04/21 09:15:47;;;;;;;9.13;2.20;;;;;;;;;;5452381;26;20042;-82
2024/04/21 09:18:33;;;;;;;7.95;2.22;;;;;;;;;;5452415;26;20045;-83
2024/04/21 09:21:18;;;;;;;6.82;2.13;;;;;;;;;;5452822;26;19998;-83
2024/04/21 09:24:03;;;;;;;6.20;1.70;;;;;;;;;;5452376;26;20012;-81
2024/04/21 09:26:48;;;;;;;3.15;1.60;;;;;;;;;;5452672;26;19999;-81
2024/04/21 09:29:34;;;;;;;5.50;1.85;;;;;;;;;;5452029;26;20033;-81
2024/04/21 09:32:19;;;;;;;6.05;1.73;;;;;;;;;;5452931;26;19994;-82
2024/04/21 09:35:09;;;;;;;2.65;1.40;;;;;;;;;;5451797;26;20002;-82
2024/04/21 09:37:54;;;;;;;9.27;1.80;;;;;;;;;;5451916;26;20066;-83
2024/04/21 09:40:40;;;;;;;5.10;1.45;;;;;;;;;;5452407;26;20456;-82
2024/04/21 09:43:29;;;;;;;7.30;2.53;;;;;;;;;;5464407;26;19999;-82
2024/04/21 09:46:15;;;;;;;6.63;1.90;;;;;;;;;;5449351;26;20406;-82
2024/04/21 09:49:02;;;;;;;9.25;1.98;;;;;;;;;;5452575;26;20414;-83
2024/04/21 09:51:48;;;;;;;5.47;2.20;;;;;;;;;;5451556;26;20170;-82
2024/04/21 09:54:34;;;;;;;10.65;2.50;;;;;;;;;;5454520;26;20026;-82
2024/04/21 09:57:19;;;;;;;6.68;1.80;;;;;;;;;;5430966;26;19998;-83
2024/04/21 10:00:07;;;;;;;6.82;1.73;;;;;;;;;;5456334;26;19999;-83
2024/04/21 10:02:54;;;;;;;3.90;1.60;;;;;;;;;;5455843;26;20002;-83
2024/04/21 10:05:40;;;;;;;3.70;1.30;;;;;;;;;;5455291;26;20042;-82
2024/04/21 10:08:27;;;;;;;3.72;1.90;;;;;;;;;;5455587;26;20399;-84
2024/04/21 10:11:12;;;;;;;10.00;1.80;;;;;;;;;;5455015;26;19998;-82
2024/04/21 10:14:01;;;;;;;6.65;1.70;;;;;;;;;;5475775;26;20009;-82
2024/04/21 10:16:46;;;;;;;7.90;2.05;;;;;;;;;;5455874;26;20041;-82
2024/04/21 10:19:31;;;;;;;4.22;1.63;;;;;;;;;;5455977;26;19998;-82
2024/04/21 10:22:19;;;;;;;5.10;1.65;;;;;;;;;;5455747;26;20141;-80
2024/04/21 10:25:04;;;;;;;5.38;1.42;;;;;;;;;;5455250;26;19998;-82
2024/04/21 10:27:49;;;;;;;4.97;2.00;;;;;;;;;;5496100;26;20470;-80
2024/04/21 10:30:38;;;;;;;4.43;1.70;;;;;;;;;;5502577;26;20622;-82
2024/04/21 10:33:27;;;;;;;6.60;1.92;;;;;;;;;;5479904;26;20009;-82
2024/04/21 10:36:19;;;;;;;7.78;1.67;;;;;;;;;;5503729;26;19997;-82
2024/04/21 10:39:05;;;;;;;6.25;1.70;;;;;;;;;;5505664;26;20538;-82
2024/04/21 10:41:56;;;;;;;4.05;2.17;;;;;;;;;;5504264;26;20433;-83
2024/04/21 10:44:42;;;;;;;5.50;1.65;;;;;;;;;;5445179;26;20485;-83
2024/04/21 10:47:27;;;;;;;3.97;1.48;;;;;;;;;;5492240;26;20002;-81
2024/04/21 10:50:12;;;;;;;5.93;1.77;;;;;;;;;;5468461;26;20447;-83
2024/04/21 10:52:58;;;;;;;5.22;1.90;;;;;;;;;;5457402;26;20504;-82
2024/04/21 10:55:43;;;;;;;4.85;1.33;;;;;;;;;;5478420;26;19994;-81
2024/04/21 10:58:29;;;;;;;3.67;1.50;;;;;;;;;;5455513;26;20493;-83
2024/04/21 11:01:14;;;;;;;4.35;1.50;;;;;;;;;;5480717;26;19998;-82
2024/04/21 11:04:03;;;;;;;6.47;1.65;;;;;;;;;;5479483;26;20009;-82
2024/04/21 11:06:51;;;;;;;3.83;1.40;;;;;;;;;;5454773;26;19998;-83
2024/04/21 11:09:40;;;;;;;4.68;2.03;;;;;;;;;;5454489;26;19998;-83
2024/04/21 11:12:26;;;;;;;5.47;1.33;;;;;;;;;;5462319;26;20004;-83
2024/04/21 11:15:11;;;;;;;5.53;1.60;;;;;;;;;;5491318;26;20034;-83
2024/04/21 11:17:59;;;;;;;4.43;1.48;;;;;;;;;;5491700;26;19993;-84
2024/04/21 11:20:45;;;;;;;7.53;2.08;;;;;;;;;;5491777;26;20505;-84
2024/04/21 11:23:31;;;;;;;3.92;1.40;;;;;;;;;;5490625;26;20009;-84
2024/04/21 11:26:16;;;;;;;5.40;2.33;;;;;;;;;;5490341;26;20033;-84
2024/04/21 11:29:01;;;;;;;6.18;1.85;;;;;;;;;;5491389;26;19998;-84
2024/04/21 11:31:47;;;;;;;4.63;1.80;;;;;;;;;;5490858;26;20506;-83
2024/04/21 11:34:32;;;;;;;4.03;1.48;;;;;;;;;;5490945;26;20020;-84
2024/04/21 11:37:19;;;;;;;5.10;2.08;;;;;;;;;;5491168;26;20002;-85
2024/04/21 11:40:06;;;;;;;5.65;1.80;;;;;;;;;;5491255;26;20071;-82
2024/04/21 11:42:51;;;;;;;4.57;2.22;;;;;;;;;;5479424;26;20445;-81
2024/04/21 11:45:38;;;;;;;6.20;1.77;;;;;;;;;;5453991;26;20374;-83
2024/04/21 11:48:23;;;;;;;5.25;1.75;;;;;;;;;;5480751;26;20006;-82
2024/04/21 11:51:08;;;;;;;6.38;2.40;;;;;;;;;;5454455;26;20003;-84
2024/04/21 11:53:55;;;;;;;6.65;1.95;;;;;;;;;;5454294;26;20002;-83
2024/04/21 11:56:40;;;;;;;3.90;1.58;;;;;;;;;;5480269;26;19997;-82
2024/04/21 11:59:25;;;;;;;3.85;1.48;;;;;;;;;;5454006;26;20100;-83
2024/04/21 12:02:11;;;;;;;6.93;1.27;;;;;;;;;;5429366;26;20010;-82
2024/04/21 12:04:56;;;;;;;6.60;1.75;;;;;;;;;;5454029;26;20014;-83
2024/04/21 12:07:41;;;;;;;6.88;1.70;;;;;;;;;;5453705;26;20002;-83
2024/04/21 12:10:26;;;;;;;4.10;1.95;;;;;;;;;;5454143;26;20348;-84
2024/04/21 12:13:12;;;;;;;2.40;1.30;;;;;;;;;;5473467;26;20002;-84
2024/04/21 12:15:57;;;;;;;3.10;1.63;;;;;;;;;;5488980;26;20020;-82
2024/04/21 12:18:42;;;;;;;5.25;1.95;;;;;;;;;;5481227;26;20079;-82
2024/04/21 12:21:29;;;;;;;5.13;1.50;;;;;;;;;;5455150;26;20029;-82
2024/04/21 12:24:14;;;;;;;6.30;1.83;;;;;;;;;;5453665;26;20012;-83
2024/04/21 12:27:00;;;;;;;6.63;1.67;;;;;;;;;;5453390;26;20018;-83
2024/04/21 12:29:45;;;;;;;5.07;2.08;;;;;;;;;;5453430;26;20447;-81
2024/04/21 12:32:30;;;;;;;5.57;1.67;;;;;;;;;;5453508;26;20002;-82
2024/04/21 12:35:15;;;;;;;4.50;1.83;;;;;;;;;;5453597;26;20024;-82
2024/04/21 12:38:01;;;;;;;7.35;2.45;;;;;;;;;;5453338;26;20013;-82
2024/04/21 12:40:46;;;;;;;5.07;1.38;;;;;;;;;;5453368;26;20002;-81
2024/04/21 12:43:32;;;;;;;4.63;1.35;;;;;;;;;;5477928;26;20001;-83
2024/04/21 12:46:17;;;;;;;3.05;1.20;;;;;;;;;;5489491;26;20468;-82
2024/04/21 12:49:02;;;;;;;5.55;1.65;;;;;;;;;;5489851;26;20303;-82
2024/04/21 12:51:47;;;;;;;4.80;1.52;;;;;;;;;;5489748;26;20001;-83
2024/04/21 12:54:33;;;;;;;7.70;1.60;;;;;;;;;;5516851;26;20076;-83
2024/04/21 12:57:18;;;;;;;3.10;1.40;;;;;;;;;;5516290;26;20025;-83
2024/04/21 13:00:03;;;;;;;3.00;1.50;;;;;;;;;;5516516;26;20001;-83
2024/04/21 13:02:49;;;;;;;4.55;1.60;;;;;;;;;;5489832;26;20002;-83
2024/04/21 13:05:35;;;;;;;3.45;1.77;;;;;;;;;;5489481;26;20065;-83
2024/04/21 13:08:20;;;;;;;3.85;1.67;;;;;;;;;;5489671;26;20020;-83
2024/04/21 13:11:06;;;;;;;5.93;1.67;;;;;;;;;;5489401;26;20080;-83
2024/04/21 13:13:51;;;;;;;9.88;2.83;;;;;;;;;;5478902;26;20074;-82
2024/04/21 13:16:37;;;;;;;5.45;1.52;;;;;;;;;;5452664;26;20030;-83
2024/04/21 13:19:25;;;;;;;5.32;1.40;;;;;;;;;;5452813;26;20009;-83
2024/04/21 13:22:10;;;;;;;6.22;1.48;;;;;;;;;;5451585;26;20005;-83
2024/04/21 13:24:56;;;;;;;7.20;1.77;;;;;;;;;;5453158;26;19990;-83
2024/04/21 13:27:41;;;;;;;5.28;2.22;;;;;;;;;;5454175;26;19994;-83
2024/04/21 13:30:26;;;;;;;3.22;1.58;;;;;;;;;;5455984;26;20029;-83
2024/04/21 13:33:11;;;;;;;5.65;1.48;;;;;;;;;;5456306;26;19998;-83
2024/04/21 13:35:57;;;;;;;3.75;1.40;;;;;;;;;;5456187;26;19994;-84
2024/04/21 13:38:42;;;;;;;3.90;1.63;;;;;;;;;;5455835;26;19995;-82
2024/04/21 13:41:27;;;;;;;5.97;1.63;;;;;;;;;;5482875;26;19998;-82
2024/04/21 13:44:12;;;;;;;4.35;1.80;;;;;;;;;;5491091;26;20090;-83
2024/04/21 13:46:58;;;;;;;4.65;1.55;;;;;;;;;;5520072;26;19997;-84
2024/04/21 13:49:43;;;;;;;4.60;1.50;;;;;;;;;;5493197;26;19997;-83
2024/04/21 13:52:28;;;;;;;3.78;1.33;;;;;;;;;;5492902;26;20343;-83
2024/04/21 13:55:13;;;;;;;4.38;1.65;;;;;;;;;;5493075;26;19997;-83
2024/04/21 13:57:58;;;;;;;7.43;1.83;;;;;;;;;;5492386;26;20044;-83
2024/04/21 14:00:44;;;;;;;4.65;1.38;;;;;;;;;;5492407;26;19998;-84
2024/04/21 14:03:29;;;;;;;3.92;1.63;;;;;;;;;;5492825;26;20456;-84
2024/04/21 14:06:16;;;;;;;12.77;3.90;;;;;;;;;;5492864;26;20455;-84
2024/04/21 14:09:02;;;;;;;5.72;1.13;;;;;;;;;;5492125;26;19994;-84
2024/04/21 14:11:47;;;;;;;4.20;1.42;;;;;;;;;;5468844;26;20019;-84
2024/04/21 14:14:32;;;;;;;2.60;1.17;;;;;;;;;;5492477;26;19994;-84
2024/04/21 14:17:17;;;;;;;2.80;1.25;;;;;;;;;;5492821;26;19993;-83
2024/04/21 14:20:03;;;;;;;3.25;1.00;;;;;;;;;;5491799;26;19993;-83
2024/04/21 14:22:48;;;;;;;4.22;1.50;;;;;;;;;;5491531;26;20716;-83
2024/04/21 14:25:33;;;;;;;4.32;1.40;;;;;;;;;;5491454;26;20378;-82
2024/04/21 14:28:18;;;;;;;3.55;1.60;;;;;;;;;;5492276;26;20321;-82
2024/04/21 14:31:04;;;;;;;3.13;1.55;;;;;;;;;;5492178;26;20012;-82
2024/04/21 14:33:49;;;;;;;5.13;1.77;;;;;;;;;;5491700;26;19994;-82
2024/04/21 14:36:35;;;;;;;3.38;1.10;;;;;;;;;;5518364;26;20005;-84
2024/04/21 14:39:20;;;;;;;2.28;1.10;;;;;;;;;;5490408;26;20004;-83
2024/04/21 14:42:05;;;;;;;2.25;1.15;;;;;;;;;;5491334;26;20287;-84
2024/04/21 14:44:52;;;;;;;2.47;1.20;;;;;;;;;;5491798;26;19997;-84
2024/04/21 14:47:44;;;;;;;3.90;1.30;;;;;;;;;;5486960;26;20004;-84
2024/04/21 14:50:29;;;;;;;4.18;1.55;;;;;;;;;;5518670;26;20002;-84
2024/04/21 14:53:14;;;;;;;2.30;1.48;;;;;;;;;;5491407;26;19997;-83
2024/04/21 14:56:00;;;;;;;3.58;1.30;;;;;;;;;;5490580;26;20378;-82
2024/04/21 14:58:45;;;;;;;1.10;0.93;;;;;;;;;;5490885;26;19998;-81
2024/04/21 15:01:30;;;;;;;3.72;1.10;;;;;;;;;;5490892;26;20449;-81
2024/04/21 15:04:17;;;;;;;3.63;1.98;;;;;;;;;;5491222;26;20082;-81
2024/04/21 15:07:02;;;;;;;3.22;1.20;;;;;;;;;;5490532;26;20454;-81
2024/04/21 15:09:48;;;;;;;0.80;0.80;;;;;;;;;;5492717;26;19993;-83
2024/04/21 15:12:33;;;;;;;1.60;1.25;;;;;;;;;;5491624;26;19994;-83
2024/04/21 15:15:18;;;;;;;1.83;1.30;;;;;;;;;;5491543;26;20004;-83
2024/04/21 15:18:04;;;;;;;1.13;1.02;;;;;;;;;;5492025;26;20393;-83
2024/04/21 15:20:49;;;;;;;1.05;1.00;;;;;;;;;;5491633;26;20009;-83
2024/04/21 15:23:35;;;;;;;1.48;1.10;;;;;;;;;;5491154;26;19994;-83
2024/04/21 15:26:20;;;;;;;1.80;1.05;;;;;;;;;;5479353;26;19990;-82
2024/04/21 15:29:05;;;;;;;0.90;0.90;;;;;;;;;;5480196;26;19994;-83
2024/04/21 15:31:50;;;;;;;0.90;0.80;;;;;;;;;;5480097;26;19990;-83
2024/04/21 15:34:36;;;;;;;0.75;0.75;;;;;;;;;;5479683;26;19990;-83
2024/04/21 15:37:21;;;;;;;1.08;1.00;;;;;;;;;;5479496;26;20755;-83
2024/04/21 15:40:09;;;;;;;2.97;1.33;;;;;;;;;;5480070;26;20066;-83
2024/04/21 15:42:54;;;;;;;3.40;1.70;;;;;;;;;;5468898;26;20067;-83
2024/04/21 15:45:39;;;;;;;2.10;1.38;;;;;;;;;;5443805;26;20457;-82
2024/04/21 15:48:24;;;;;;;1.33;0.90;;;;;;;;;;5443175;26;19999;-83
2024/04/21 15:51:10;;;;;;;1.55;1.02;;;;;;;;;;5443371;26;20103;-82
2024/04/21 15:53:58;;;;;;;0.98;0.82;;;;;;;;;;5444902;26;20072;-83
2024/04/21 15:56:43;;;;;;;0.85;0.85;;;;;;;;;;5444517;26;19999;-83
2024/04/21 15:59:28;;;;;;;1.15;1.00;;;;;;;;;;5444530;26;19998;-83
2024/04/21 16:02:14;;;;;;;0.80;0.80;;;;;;;;;;5443340;26;20002;-83
2024/04/21 16:04:59;;;;;;;1.67;0.60;;;;;;;;;;5466556;26;20003;-83
2024/04/21 16:07:44;;;;;;;0.75;0.70;;;;;;;;;;5453579;26;19997;-83
2024/04/21 16:10:30;;;;;;;0.85;0.75;;;;;;;;;;5489847;26;20073;-84
2024/04/21 16:13:15;;;;;;;1.00;0.82;;;;;;;;;;5482774;26;20009;-83
2024/04/21 16:16:00;;;;;;;1.73;0.98;;;;;;;;;;5478571;26;20002;-84
2024/04/21 16:18:45;;;;;;;0.80;0.80;;;;;;;;;;5488325;26;20001;-84
2024/04/21 16:21:32;;;;;;;1.08;0.98;;;;;;;;;;5475810;26;20441;-84
2024/04/21 16:24:17;;;;;;;1.05;0.98;;;;;;;;;;5483878;26;19994;-85
2024/04/21 16:27:02;;;;;;;1.15;0.95;;;;;;;;;;5465713;26;20009;-84
2024/04/21 16:29:50;;;;;;;1.98;1.33;;;;;;;;;;5481385;26;20006;-83
2024/04/21 16:32:37;;;;;;;1.20;1.10;;;;;;;;;;5447052;26;19999;-81
2024/04/21 16:35:23;;;;;;;2.13;1.27;;;;;;;;;;5469009;26;19998;-80
2024/04/21 16:38:08;;;;;;;1.30;1.00;;;;;;;;;;5478076;26;20017;-82